createdAt,value
2017-09-08T00:00:44.924Z,47.93
2017-09-08T00:02:47.458Z,47.99
2017-09-08T00:04:49.931Z,47.85
2017-09-08T00:06:52.404Z,47.67
2017-09-08T00:08:54.968Z,47.74
2017-09-08T00:10:57.404Z,47.69
2017-09-08T00:12:59.873Z,47.93
2017-09-08T00:15:02.356Z,48.07
2017-09-08T00:17:04.793Z,48.00
2017-09-08T00:19:07.404Z,47.94
2017-09-08T00:21:09.880Z,47.92
2017-09-08T00:23:12.326Z,47.86
2017-09-08T00:25:14.793Z,47.82
2017-09-08T00:27:17.239Z,47.76
2017-09-08T00:29:19.749Z,47.85
2017-09-08T00:31:22.370Z,47.85
2017-09-08T00:33:24.965Z,48.12
2017-09-08T00:35:27.532Z,48.13
2017-09-08T00:37:30.068Z,48.02
2017-09-08T00:39:32.779Z,47.95
2017-09-08T00:41:35.352Z,47.86
2017-09-08T00:43:37.948Z,48.02
2017-09-08T00:45:40.440Z,47.94
2017-09-08T00:47:42.973Z,48.02
2017-09-08T00:49:45.540Z,48.01
2017-09-08T00:51:48.810Z,47.94
2017-09-08T00:53:51.325Z,48.15
2017-09-08T00:55:53.810Z,48.04
2017-09-08T00:57:56.276Z,48.07
2017-09-08T00:59:58.757Z,48.05
2017-09-08T01:02:01.290Z,48.39
2017-09-08T01:04:03.735Z,48.32
2017-09-08T01:06:06.189Z,48.18
2017-09-08T01:08:08.653Z,48.09
2017-09-08T01:10:11.108Z,48.04
2017-09-08T01:12:13.563Z,48.03
2017-09-08T01:14:16.084Z,48.04
2017-09-08T01:16:18.574Z,48.23
2017-09-08T01:18:21.046Z,48.15
2017-09-08T01:20:23.596Z,48.13
2017-09-08T01:22:26.098Z,48.32
2017-09-08T01:24:28.539Z,48.18
2017-09-08T01:26:31.134Z,48.15
2017-09-08T01:28:33.648Z,48.40
2017-09-08T01:30:36.120Z,48.44
2017-09-08T01:32:38.737Z,48.45
2017-09-08T01:34:41.217Z,48.23
2017-09-08T01:36:43.724Z,48.20
2017-09-08T01:38:46.447Z,48.16
2017-09-08T01:40:48.976Z,48.20
2017-09-08T01:42:51.588Z,48.44
2017-09-08T01:44:54.136Z,48.40
2017-09-08T01:46:56.732Z,48.38
2017-09-08T01:48:59.190Z,48.23
2017-09-08T01:51:01.735Z,48.39
2017-09-08T01:53:05.981Z,48.40
2017-09-08T01:55:08.596Z,48.34
2017-09-08T01:57:11.089Z,48.54
2017-09-08T01:59:13.543Z,48.61
2017-09-08T02:01:16.075Z,48.78
2017-09-08T02:03:18.585Z,48.65
2017-09-08T02:05:21.120Z,48.64
2017-09-08T02:07:23.735Z,48.56
2017-09-08T02:09:26.254Z,48.66
2017-09-08T02:11:28.791Z,48.62
2017-09-08T02:13:31.476Z,48.60
2017-09-08T02:15:33.954Z,48.61
2017-09-08T02:17:36.436Z,48.61
2017-09-08T02:19:38.946Z,48.76
2017-09-08T02:21:47.148Z,48.74
2017-09-08T02:23:50.547Z,48.62
2017-09-08T02:25:53.044Z,48.53
2017-09-08T02:27:55.526Z,48.48
2017-09-08T02:29:57.999Z,48.59
2017-09-08T02:32:00.444Z,48.79
2017-09-08T02:34:02.929Z,48.81
2017-09-08T02:36:05.426Z,48.75
2017-09-08T02:38:07.883Z,48.79
2017-09-08T02:40:10.429Z,48.71
2017-09-08T02:42:12.972Z,48.44
2017-09-08T02:44:15.536Z,48.86
2017-09-08T02:46:18.015Z,48.80
2017-09-08T02:48:20.487Z,48.69
2017-09-08T02:50:22.930Z,48.86
2017-09-08T02:52:25.441Z,48.68
2017-09-08T02:54:29.648Z,48.85
2017-09-08T02:56:32.188Z,48.66
2017-09-08T02:58:34.809Z,48.72
2017-09-08T03:00:37.355Z,48.77
2017-09-08T03:02:39.969Z,48.80
2017-09-08T03:04:42.464Z,48.69
2017-09-08T03:06:45.024Z,48.88
2017-09-08T03:08:47.650Z,48.83
2017-09-08T03:10:50.204Z,48.75
2017-09-08T03:12:52.668Z,48.87
2017-09-08T03:14:55.145Z,48.86
2017-09-08T03:16:57.610Z,49.03
2017-09-08T03:19:00.064Z,49.04
2017-09-08T03:21:02.613Z,48.74
2017-09-08T03:23:05.186Z,48.68
2017-09-08T03:25:07.653Z,48.73
2017-09-08T03:27:10.178Z,48.97
2017-09-08T03:29:12.684Z,49.01
2017-09-08T03:31:15.246Z,48.96
2017-09-08T03:33:17.761Z,49.03
2017-09-08T03:35:20.528Z,49.00
2017-09-08T03:37:22.980Z,49.03
2017-09-08T03:39:25.518Z,49.03
2017-09-08T03:41:28.024Z,49.17
2017-09-08T03:43:30.560Z,49.30
2017-09-08T03:45:32.988Z,49.25
2017-09-08T03:47:35.552Z,49.38
2017-09-08T03:49:38.044Z,49.19
2017-09-08T03:51:40.687Z,49.20
2017-09-08T03:53:43.180Z,49.47
2017-09-08T03:55:45.995Z,49.40
2017-09-08T03:57:48.467Z,49.32
2017-09-08T03:59:50.994Z,49.44
2017-09-08T04:01:53.461Z,49.27
2017-09-08T04:03:56.041Z,49.43
2017-09-08T04:05:58.622Z,49.43
2017-09-08T04:08:01.225Z,49.56
2017-09-08T04:10:03.664Z,49.62
2017-09-08T04:12:06.269Z,49.71
2017-09-08T04:14:08.766Z,49.45
2017-09-08T04:16:11.241Z,49.38
2017-09-08T04:18:13.769Z,49.33
2017-09-08T04:20:16.293Z,49.37
2017-09-08T04:22:18.753Z,49.46
2017-09-08T04:24:21.394Z,49.72
2017-09-08T04:26:23.832Z,49.46
2017-09-08T04:28:26.425Z,49.54
2017-09-08T04:30:28.942Z,49.58
2017-09-08T04:32:31.433Z,49.55
2017-09-08T04:34:33.880Z,49.55
2017-09-08T04:36:36.380Z,49.60
2017-09-08T04:38:39.975Z,49.59
2017-09-08T04:40:42.479Z,49.57
2017-09-08T04:42:44.977Z,49.46
2017-09-08T04:44:47.468Z,49.24
2017-09-08T04:46:49.965Z,49.22
2017-09-08T04:48:52.684Z,49.28
2017-09-08T04:50:55.225Z,49.15
2017-09-08T04:52:57.670Z,49.37
2017-09-08T04:55:00.164Z,49.33
2017-09-08T04:57:02.768Z,49.29
2017-09-08T04:59:05.244Z,49.29
2017-09-08T05:01:07.800Z,49.51
2017-09-08T05:03:10.381Z,49.46
2017-09-08T05:05:13.032Z,49.43
2017-09-08T05:07:15.633Z,49.26
2017-09-08T05:09:18.165Z,49.34
2017-09-08T05:11:20.631Z,49.74
2017-09-08T05:13:23.156Z,49.62
2017-09-08T05:15:25.668Z,49.48
2017-09-08T05:17:28.168Z,49.39
2017-09-08T05:19:30.704Z,49.47
2017-09-08T05:21:33.158Z,49.46
2017-09-08T05:23:35.692Z,49.24
2017-09-08T05:25:38.193Z,49.36
2017-09-08T05:27:40.683Z,49.41
2017-09-08T05:29:43.144Z,49.47
2017-09-08T05:31:45.719Z,49.23
2017-09-08T05:33:48.177Z,49.10
2017-09-08T05:35:50.721Z,49.28
2017-09-08T05:37:53.264Z,49.21
2017-09-08T05:39:55.728Z,49.21
2017-09-08T05:41:58.276Z,49.21
2017-09-08T05:44:00.780Z,49.15
2017-09-08T05:46:03.281Z,49.30
2017-09-08T05:48:05.851Z,49.29
2017-09-08T05:50:08.366Z,49.07
2017-09-08T05:52:10.999Z,49.01
2017-09-08T05:54:14.522Z,49.05
2017-09-08T05:56:17.036Z,48.96
2017-09-08T05:58:19.543Z,48.66
2017-09-08T06:00:22.101Z,48.60
2017-09-08T06:02:24.770Z,48.64
2017-09-08T06:04:27.253Z,48.74
2017-09-08T06:06:29.745Z,48.99
2017-09-08T06:08:32.308Z,48.73
2017-09-08T06:10:34.757Z,48.76
2017-09-08T06:12:37.300Z,48.67
2017-09-08T06:14:39.800Z,48.64
2017-09-08T06:16:42.353Z,48.70
2017-09-08T06:18:46.392Z,48.66
2017-09-08T06:20:49.001Z,48.74
2017-09-08T06:22:52.306Z,48.54
2017-09-08T06:24:54.748Z,48.32
2017-09-08T06:26:57.229Z,48.36
2017-09-08T06:28:59.794Z,48.32
2017-09-08T06:31:02.328Z,48.06
2017-09-08T06:33:04.902Z,48.23
2017-09-08T06:35:07.411Z,48.05
2017-09-08T06:37:09.851Z,48.42
2017-09-08T06:39:12.522Z,48.03
2017-09-08T06:41:15.056Z,47.97
2017-09-08T06:43:17.560Z,48.14
2017-09-08T06:45:20.130Z,48.31
2017-09-08T06:47:22.565Z,48.11
2017-09-08T06:49:25.013Z,48.07
2017-09-08T06:51:27.547Z,48.04
2017-09-08T06:53:29.974Z,48.30
2017-09-08T06:55:32.485Z,48.06
2017-09-08T06:57:35.122Z,47.86
2017-09-08T06:59:37.633Z,47.66
2017-09-08T07:01:40.146Z,47.77
2017-09-08T07:03:42.609Z,47.94
2017-09-08T07:05:45.128Z,47.89
2017-09-08T07:07:47.714Z,47.85
2017-09-08T07:09:50.255Z,47.86
2017-09-08T07:11:52.860Z,47.84
2017-09-08T07:13:55.406Z,47.83
2017-09-08T07:15:57.930Z,47.67
2017-09-08T07:18:00.408Z,47.62
2017-09-08T07:20:02.912Z,47.55
2017-09-08T07:22:05.392Z,47.38
2017-09-08T07:24:07.887Z,47.59
2017-09-08T07:26:10.459Z,47.53
2017-09-08T07:28:12.996Z,47.53
2017-09-08T07:30:15.512Z,47.47
2017-09-08T07:32:18.052Z,47.29
2017-09-08T07:34:20.546Z,47.29
2017-09-08T07:36:23.124Z,47.36
2017-09-08T07:38:25.583Z,47.32
2017-09-08T07:40:28.071Z,47.30
2017-09-08T07:42:30.611Z,47.17
2017-09-08T07:44:33.202Z,47.24
2017-09-08T07:46:35.752Z,47.18
2017-09-08T07:48:38.225Z,47.27
2017-09-08T07:50:40.897Z,47.14
2017-09-08T07:52:43.493Z,46.92
2017-09-08T07:54:46.079Z,47.21
2017-09-08T07:56:48.557Z,47.00
2017-09-08T07:58:51.103Z,47.05
2017-09-08T08:00:53.629Z,47.13
2017-09-08T08:02:56.155Z,47.21
2017-09-08T08:04:58.723Z,47.16
2017-09-08T08:07:01.200Z,47.29
2017-09-08T08:09:03.799Z,47.36
2017-09-08T08:11:06.378Z,47.14
2017-09-08T08:13:08.843Z,47.18
2017-09-08T08:15:11.450Z,47.42
2017-09-08T08:17:14.053Z,47.62
2017-09-08T08:19:16.578Z,47.68
2017-09-08T08:21:19.096Z,47.40
2017-09-08T08:23:21.652Z,47.49
2017-09-08T08:25:24.139Z,47.51
2017-09-08T08:27:26.586Z,47.66
2017-09-08T08:29:29.144Z,47.94
2017-09-08T08:31:31.621Z,47.86
2017-09-08T08:33:34.122Z,47.81
2017-09-08T08:35:36.727Z,47.74
2017-09-08T08:37:39.377Z,47.73
2017-09-08T08:39:41.841Z,47.68
2017-09-08T08:41:44.314Z,47.76
2017-09-08T08:43:46.763Z,47.99
2017-09-08T08:45:49.226Z,47.76
2017-09-08T08:47:51.705Z,48.07
2017-09-08T08:49:54.271Z,47.84
2017-09-08T08:51:56.729Z,47.51
2017-09-08T08:53:59.303Z,47.21
2017-09-08T08:56:01.809Z,47.31
2017-09-08T08:58:04.266Z,47.18
2017-09-08T09:00:06.741Z,47.57
2017-09-08T09:02:09.234Z,47.34
2017-09-08T09:04:11.790Z,47.54
2017-09-08T09:06:14.356Z,47.20
2017-09-08T09:08:16.841Z,47.33
2017-09-08T09:10:19.358Z,47.39
2017-09-08T09:12:21.817Z,47.20
2017-09-08T09:14:24.300Z,47.16
2017-09-08T09:16:26.736Z,47.25
2017-09-08T09:18:29.200Z,47.10
2017-09-08T09:20:31.733Z,47.24
2017-09-08T09:22:34.277Z,47.18
2017-09-08T09:24:37.004Z,47.07
2017-09-08T09:26:39.574Z,47.09
2017-09-08T09:28:42.091Z,47.12
2017-09-08T09:30:44.600Z,47.02
2017-09-08T09:32:47.168Z,47.35
2017-09-08T09:34:49.663Z,47.64
2017-09-08T09:36:52.222Z,47.72
2017-09-08T09:38:54.806Z,47.52
2017-09-08T09:40:57.373Z,47.75
2017-09-08T09:42:59.925Z,47.93
2017-09-08T09:45:02.440Z,48.22
2017-09-08T09:47:04.896Z,48.21
2017-09-08T09:49:07.367Z,48.28
2017-09-08T09:51:09.900Z,48.26
2017-09-08T09:53:12.537Z,47.81
2017-09-08T09:55:15.090Z,47.68
2017-09-08T09:57:17.672Z,47.46
2017-09-08T09:59:20.228Z,47.31
2017-09-08T10:01:22.815Z,47.22
2017-09-08T10:03:25.538Z,47.09
2017-09-08T10:05:28.048Z,47.12
2017-09-08T10:07:30.582Z,47.04
2017-09-08T10:09:33.098Z,47.00
2017-09-08T10:11:35.601Z,46.98
2017-09-08T10:13:38.096Z,47.04
2017-09-08T10:15:40.572Z,46.87
2017-09-08T10:17:43.038Z,46.85
2017-09-08T10:19:45.510Z,46.74
2017-09-08T10:21:48.115Z,46.74
2017-09-08T10:23:50.568Z,46.97
2017-09-08T10:25:53.056Z,46.92
2017-09-08T10:27:55.523Z,46.78
2017-09-08T10:29:58.012Z,46.83
2017-09-08T10:32:00.509Z,46.88
2017-09-08T10:34:02.972Z,46.83
2017-09-08T10:36:05.610Z,46.83
2017-09-08T10:38:08.093Z,46.82
2017-09-08T10:40:10.552Z,46.79
2017-09-08T10:42:13.235Z,46.83
2017-09-08T10:44:15.843Z,46.77
2017-09-08T10:46:18.337Z,46.78
2017-09-08T10:48:20.812Z,46.86
2017-09-08T10:50:23.420Z,46.76
2017-09-08T10:52:25.988Z,46.70
2017-09-08T10:54:28.467Z,46.71
2017-09-08T10:56:31.012Z,46.70
2017-09-08T10:58:33.602Z,46.90
2017-09-08T11:00:36.144Z,46.82
2017-09-08T11:02:38.742Z,46.85
2017-09-08T11:04:41.271Z,46.78
2017-09-08T11:06:43.796Z,46.91
2017-09-08T11:08:46.254Z,46.91
2017-09-08T11:10:48.748Z,46.98
2017-09-08T11:12:51.289Z,47.10
2017-09-08T11:14:53.772Z,47.04
2017-09-08T11:16:56.224Z,46.96
2017-09-08T11:18:58.707Z,46.99
2017-09-08T11:21:01.216Z,47.10
2017-09-08T11:23:03.681Z,47.35
2017-09-08T11:25:06.163Z,47.34
2017-09-08T11:27:08.732Z,47.23
2017-09-08T11:29:11.301Z,47.44
2017-09-08T11:31:13.758Z,47.24
2017-09-08T11:33:21.908Z,47.17
2017-09-08T11:35:30.130Z,47.26
2017-09-08T11:37:32.576Z,47.27
2017-09-08T11:39:35.116Z,47.43
2017-09-08T11:41:37.574Z,47.47
2017-09-08T11:43:40.056Z,47.47
2017-09-08T11:45:42.582Z,47.46
2017-09-08T11:47:45.121Z,47.58
2017-09-08T11:49:47.593Z,47.55
2017-09-08T11:51:50.057Z,47.76
2017-09-08T11:53:52.583Z,47.69
2017-09-08T11:55:55.158Z,47.89
2017-09-08T11:57:57.656Z,47.74
2017-09-08T12:00:00.269Z,48.19
2017-09-08T12:02:02.717Z,48.04
2017-09-08T12:04:05.231Z,48.42
2017-09-08T12:06:07.804Z,48.23
2017-09-08T12:08:10.241Z,48.32
2017-09-08T12:10:12.792Z,48.17
2017-09-08T12:12:15.296Z,48.25
2017-09-08T12:14:17.733Z,48.26
2017-09-08T12:16:20.225Z,48.18
2017-09-08T12:18:22.733Z,48.35
2017-09-08T12:20:25.209Z,48.22
2017-09-08T12:22:27.795Z,48.21
2017-09-08T12:24:30.333Z,48.09
2017-09-08T12:26:32.840Z,48.14
2017-09-08T12:28:35.316Z,48.10
2017-09-08T12:30:37.764Z,48.08
2017-09-08T12:32:40.215Z,48.18
2017-09-08T12:34:42.810Z,48.45
2017-09-08T12:36:45.236Z,48.72
2017-09-08T12:38:47.762Z,48.60
2017-09-08T12:40:50.228Z,48.62
2017-09-08T12:42:52.668Z,48.83
2017-09-08T12:44:55.134Z,48.78
2017-09-08T12:46:57.594Z,48.86
2017-09-08T12:49:00.056Z,49.52
2017-09-08T12:51:02.547Z,49.74
2017-09-08T12:53:05.104Z,50.28
2017-09-08T12:55:07.550Z,50.07
2017-09-08T12:57:10.039Z,50.27
2017-09-08T12:59:12.493Z,50.55
2017-09-08T13:01:14.953Z,50.78
2017-09-08T13:03:17.388Z,50.13
2017-09-08T13:05:19.962Z,49.95
2017-09-08T13:07:22.446Z,49.97
2017-09-08T13:09:24.902Z,49.81
2017-09-08T13:11:27.365Z,49.70
2017-09-08T13:13:29.880Z,49.56
2017-09-08T13:15:32.388Z,49.49
2017-09-08T13:17:34.893Z,49.47
2017-09-08T13:19:38.332Z,49.49
2017-09-08T13:21:40.852Z,49.44
2017-09-08T13:23:43.340Z,49.38
2017-09-08T13:25:45.894Z,49.39
2017-09-08T13:27:48.402Z,49.32
2017-09-08T13:29:50.902Z,49.25
2017-09-08T13:31:53.362Z,49.17
2017-09-08T13:33:55.841Z,49.20
2017-09-08T13:35:58.346Z,49.16
2017-09-08T13:38:01.048Z,49.16
2017-09-08T13:40:03.544Z,49.11
2017-09-08T13:42:06.025Z,49.20
2017-09-08T13:44:08.624Z,52.49
2017-09-08T13:46:11.108Z,52.38
2017-09-08T13:48:13.584Z,54.71
2017-09-08T13:50:16.139Z,55.95
2017-09-08T13:52:18.579Z,57.49
2017-09-08T13:54:21.048Z,57.27
2017-09-08T13:56:23.579Z,57.43
2017-09-08T13:58:26.145Z,58.53
2017-09-08T14:00:28.659Z,59.92
2017-09-08T14:02:31.108Z,57.17
2017-09-08T14:04:33.633Z,57.56
2017-09-08T14:06:36.222Z,57.10
2017-09-08T14:08:39.705Z,57.90
2017-09-08T14:10:42.237Z,56.90
2017-09-08T14:12:44.684Z,56.91
2017-09-08T14:14:47.190Z,57.25
2017-09-08T14:16:49.699Z,57.73
2017-09-08T14:18:52.179Z,57.18
2017-09-08T14:20:54.742Z,58.26
2017-09-08T14:22:57.188Z,58.75
2017-09-08T14:24:59.782Z,58.67
2017-09-08T14:27:02.252Z,58.58
2017-09-08T14:29:04.690Z,57.90
2017-09-08T14:31:07.173Z,58.46
2017-09-08T14:33:09.621Z,58.61
2017-09-08T14:35:12.427Z,59.44
2017-09-08T14:37:15.035Z,60.95
2017-09-08T14:39:17.483Z,61.02
2017-09-08T14:41:19.980Z,61.61
2017-09-08T14:43:22.628Z,60.35
2017-09-08T14:45:25.062Z,61.75
2017-09-08T14:47:27.501Z,59.63
2017-09-08T16:11:03.558Z,52.80
2017-09-08T16:13:06.094Z,52.75
2017-09-08T16:15:08.644Z,52.71
2017-09-08T16:17:12.009Z,52.64
2017-09-08T16:19:14.516Z,52.61
2017-09-08T16:21:17.108Z,52.94
2017-09-08T16:23:19.677Z,53.53
2017-09-08T16:25:22.249Z,53.47
2017-09-08T16:27:24.679Z,53.65
2017-09-08T16:29:27.180Z,54.06
2017-09-08T16:31:29.761Z,54.23
2017-09-08T16:33:32.223Z,54.62
2017-09-08T16:35:34.714Z,54.00
2017-09-08T16:37:37.192Z,54.26
2017-09-08T16:39:39.633Z,54.31
2017-09-08T16:41:42.132Z,54.45
2017-09-08T16:43:44.590Z,54.29
2017-09-08T16:45:47.064Z,54.10
2017-09-08T16:47:49.649Z,53.98
2017-09-08T16:49:52.105Z,54.16
2017-09-08T16:51:54.544Z,54.44
2017-09-08T16:53:57.009Z,54.27
2017-09-08T16:55:59.464Z,54.25
2017-09-08T16:58:01.960Z,54.35
2017-09-08T17:00:04.443Z,54.47
2017-09-08T17:02:06.978Z,54.21
2017-09-08T17:04:09.489Z,54.25
2017-09-08T17:06:11.995Z,54.33
2017-09-08T17:08:14.564Z,54.28
2017-09-08T17:10:17.088Z,54.64
2017-09-08T17:12:19.688Z,54.67
2017-09-08T17:14:22.117Z,54.58
2017-09-08T17:16:24.550Z,54.69
2017-09-08T17:18:27.085Z,54.66
2017-09-08T17:20:29.608Z,55.21
2017-09-08T17:22:32.068Z,55.32
2017-09-08T17:24:34.599Z,55.03
2017-09-08T17:26:37.181Z,54.92
2017-09-08T17:28:39.701Z,55.58
2017-09-08T17:30:42.280Z,55.40
2017-09-08T17:32:44.780Z,55.45
2017-09-08T17:34:47.360Z,55.48
2017-09-08T17:36:49.871Z,55.45
2017-09-08T17:38:52.420Z,55.94
2017-09-08T17:40:54.974Z,55.49
2017-09-08T17:42:57.547Z,55.31
2017-09-08T17:45:00.221Z,55.34
2017-09-08T17:47:02.795Z,55.41
2017-09-08T17:49:05.239Z,55.55
2017-09-08T17:51:07.742Z,55.39
2017-09-08T17:53:10.287Z,55.38
2017-09-08T17:55:12.768Z,55.47
2017-09-08T17:57:15.199Z,55.71
2017-09-08T17:59:17.655Z,55.38
2017-09-08T18:01:20.446Z,55.34
2017-09-08T18:03:22.956Z,55.05
2017-09-08T18:05:25.468Z,54.93
2017-09-08T18:07:27.993Z,55.14
2017-09-08T18:09:30.417Z,55.12
2017-09-08T18:11:32.900Z,55.30
2017-09-08T18:13:35.877Z,55.76
2017-09-08T18:15:38.321Z,55.67
2017-09-08T18:17:40.895Z,55.55
2017-09-08T18:19:43.348Z,55.57
2017-09-08T18:21:45.924Z,55.71
2017-09-08T18:23:48.401Z,56.10
2017-09-08T18:25:50.906Z,55.91
2017-09-08T18:27:53.452Z,55.99
2017-09-08T18:29:56.003Z,56.03
2017-09-08T18:31:58.504Z,55.82
2017-09-08T18:34:00.942Z,55.87
2017-09-08T18:36:03.432Z,55.90
2017-09-08T18:38:05.937Z,55.87
2017-09-08T18:40:08.384Z,55.93
2017-09-08T18:42:10.892Z,55.85
2017-09-08T18:44:13.400Z,55.87
2017-09-08T18:46:16.001Z,55.80
2017-09-08T18:48:18.479Z,56.28
2017-09-08T18:50:21.065Z,56.41
2017-09-08T18:52:23.750Z,56.65
2017-09-08T18:54:26.463Z,56.43
2017-09-08T18:56:28.992Z,56.22
2017-09-08T18:58:31.504Z,56.37
2017-09-08T19:00:33.998Z,56.37
2017-09-08T19:02:38.337Z,56.42
2017-09-08T19:04:41.646Z,56.29
2017-09-08T19:06:44.195Z,56.02
2017-09-08T19:08:46.742Z,56.00
2017-09-08T19:10:50.093Z,55.92
2017-09-08T19:12:52.644Z,55.70
2017-09-08T19:14:55.462Z,55.54
2017-09-08T19:16:57.968Z,55.52
2017-09-08T19:19:00.438Z,55.43
2017-09-08T19:21:02.916Z,55.56
2017-09-08T19:23:05.451Z,55.58
2017-09-08T19:25:08.013Z,55.80
2017-09-08T19:27:10.486Z,55.83
2017-09-08T19:29:13.003Z,55.91
2017-09-08T19:31:15.532Z,56.16
2017-09-08T19:33:17.998Z,56.25
2017-09-08T19:35:20.524Z,56.35
2017-09-08T19:37:23.140Z,56.47
2017-09-08T19:39:25.718Z,56.01
2017-09-08T19:41:28.176Z,56.04
2017-09-08T19:43:30.621Z,55.93
2017-09-08T19:45:33.077Z,56.04
2017-09-08T19:47:35.570Z,56.15
2017-09-08T19:49:38.112Z,56.03
2017-09-08T19:51:40.645Z,56.15
2017-09-08T19:53:43.077Z,56.17
2017-09-08T19:55:45.629Z,56.49
2017-09-08T19:57:48.219Z,56.30
2017-09-08T19:59:50.657Z,56.41
2017-09-08T20:01:53.099Z,56.57
2017-09-08T20:03:55.705Z,56.33
2017-09-08T20:05:58.179Z,56.37
2017-09-08T20:08:00.624Z,56.59
2017-09-08T20:10:03.094Z,56.28
2017-09-08T20:12:05.650Z,56.31
2017-09-08T20:14:08.141Z,56.33
2017-09-08T20:16:10.797Z,56.46
2017-09-08T20:18:13.233Z,56.29
2017-09-08T20:20:15.703Z,56.86
2017-09-08T20:22:18.368Z,56.42
2017-09-08T20:24:20.864Z,56.35
2017-09-08T20:26:23.435Z,56.26
2017-09-08T20:28:26.066Z,56.27
2017-09-08T20:30:28.563Z,56.28
2017-09-08T20:32:31.010Z,56.20
2017-09-08T20:34:33.553Z,56.23
2017-09-08T20:36:36.095Z,56.14
2017-09-08T20:38:38.539Z,56.63
2017-09-08T20:40:42.052Z,56.46
2017-09-08T20:42:44.548Z,56.51
2017-09-08T20:44:47.125Z,56.45
2017-09-08T20:46:49.756Z,56.45
2017-09-08T20:48:52.205Z,56.60
2017-09-08T20:50:54.637Z,56.62
2017-09-08T20:52:57.121Z,56.50
2017-09-08T20:54:59.567Z,57.06
2017-09-08T20:57:02.147Z,56.95
2017-09-08T20:59:04.615Z,57.33
2017-09-08T21:01:07.094Z,57.35
2017-09-08T21:03:09.524Z,57.03
2017-09-08T21:05:12.006Z,56.77
2017-09-08T21:07:14.440Z,56.81
2017-09-08T21:09:16.935Z,56.98
2017-09-08T21:11:19.440Z,57.18
2017-09-08T21:13:21.992Z,57.35
2017-09-08T21:15:24.432Z,57.19
2017-09-08T21:17:27.079Z,57.14
2017-09-08T21:19:29.604Z,57.04
2017-09-08T21:21:32.096Z,57.29
2017-09-08T21:23:34.982Z,57.45
2017-09-08T21:25:37.423Z,57.12
2017-09-08T21:27:39.955Z,56.77
2017-09-08T21:29:42.464Z,57.03
2017-09-08T21:31:45.006Z,57.18
2017-09-08T21:33:47.483Z,57.22
2017-09-08T21:35:49.948Z,57.02
2017-09-08T21:37:52.416Z,57.17
2017-09-08T21:39:54.942Z,56.96
2017-09-08T21:41:57.437Z,56.92
2017-09-08T21:43:59.867Z,57.21
2017-09-08T21:46:02.429Z,57.13
2017-09-08T21:48:04.886Z,57.10
2017-09-08T21:50:07.348Z,57.07
2017-09-08T21:52:09.967Z,57.20
2017-09-08T21:54:12.495Z,57.10
2017-09-08T21:56:14.925Z,57.07
2017-09-08T21:58:17.476Z,57.24
2017-09-08T22:00:20.033Z,56.88
2017-09-08T22:02:22.660Z,56.60
2017-09-08T22:04:25.100Z,56.72
2017-09-08T22:06:27.672Z,56.46
2017-09-08T22:08:30.273Z,56.62
2017-09-08T22:10:32.704Z,56.74
2017-09-08T22:12:35.211Z,56.73
2017-09-08T22:14:37.792Z,56.70
2017-09-08T22:16:40.306Z,56.65
2017-09-08T22:18:42.898Z,56.62
2017-09-08T22:20:45.409Z,56.77
2017-09-08T22:22:47.849Z,56.88
2017-09-08T22:24:51.392Z,56.58
2017-09-08T22:26:53.828Z,56.70
2017-09-08T22:28:56.379Z,56.81
2017-09-08T22:30:58.948Z,56.63
2017-09-08T22:33:01.405Z,56.72
2017-09-08T22:35:03.895Z,56.93
2017-09-08T22:37:06.462Z,56.77
2017-09-08T22:39:08.892Z,56.67
2017-09-08T22:41:11.328Z,56.77
2017-09-08T22:43:13.782Z,56.61
2017-09-08T22:45:16.244Z,56.44
2017-09-08T22:47:18.712Z,56.46
2017-09-08T22:49:21.286Z,56.46
2017-09-08T22:51:23.802Z,56.54
2017-09-08T22:53:26.315Z,56.58
2017-09-08T22:55:28.932Z,56.66
2017-09-08T22:57:31.408Z,56.50
2017-09-08T22:59:34.014Z,56.44
2017-09-08T23:01:36.618Z,56.28
2017-09-08T23:03:39.048Z,56.38
2017-09-08T23:05:41.510Z,56.36
2017-09-08T23:07:43.998Z,56.61
2017-09-08T23:09:46.429Z,56.41
2017-09-08T23:11:48.861Z,56.17
2017-09-08T23:13:51.439Z,56.24
2017-09-08T23:15:53.868Z,56.26
2017-09-08T23:17:56.351Z,56.25
2017-09-08T23:19:59.056Z,56.17
2017-09-08T23:22:01.588Z,56.21
2017-09-08T23:24:04.225Z,56.29
2017-09-08T23:26:06.834Z,56.33
2017-09-08T23:28:09.292Z,56.05
2017-09-08T23:30:11.768Z,55.93
2017-09-08T23:32:14.228Z,56.01
2017-09-08T23:34:16.754Z,56.07
2017-09-08T23:36:19.276Z,56.02
2017-09-08T23:38:21.811Z,56.05
2017-09-08T23:40:24.267Z,56.03
2017-09-08T23:42:26.781Z,56.10
2017-09-08T23:44:29.346Z,56.17
2017-09-08T23:46:31.840Z,56.10
2017-09-08T23:48:34.353Z,56.18
2017-09-08T23:50:36.860Z,56.18
2017-09-08T23:52:39.283Z,56.05
2017-09-08T23:54:41.721Z,56.02
2017-09-08T23:56:44.282Z,56.11
2017-09-08T23:58:46.780Z,56.15
